Time;durP1;ratioP1;P1;durP2;ratioP2;P2;SDS_P1;SDS_P2;PMS_P1;PMS_P2;Temp;Humidity;BMP_temperature;BMP_pressure;BME280_temperature;BME280_humidity;BME280_pressure;Samples;Min_cycle;Max_cycle;Signal;HPM_P1;HPM_P2
2023/03/01 00:00:38;;;;;;;13.48;8.68;;;0.80;99.90;;;;;;5030970;28;20451;-57
2023/03/01 00:03:04;;;;;;;15.85;8.70;;;0.70;99.90;;;;;;5025827;28;20036;-57
2023/03/01 00:05:29;;;;;;;16.00;8.40;;;0.70;99.90;;;;;;5030132;28;20037;-56
2023/03/01 00:07:55;;;;;;;15.23;8.30;;;0.90;99.90;;;;;;5027586;28;20038;-56
2023/03/01 00:10:20;;;;;;;13.45;8.43;;;0.80;99.90;;;;;;5025617;28;25772;-55
2023/03/01 00:12:46;;;;;;;12.65;8.02;;;0.70;99.90;;;;;;5022607;28;20044;-55
2023/03/01 00:15:12;;;;;;;14.77;8.95;;;0.50;99.90;;;;;;5033855;28;20033;-56
2023/03/01 00:17:37;;;;;;;13.32;8.52;;;0.50;99.90;;;;;;5021903;28;20084;-54
2023/03/01 00:20:07;;;;;;;13.45;8.13;;;0.50;99.90;;;;;;5055053;28;20508;-56
2023/03/01 00:22:33;;;;;;;11.60;8.23;;;0.50;99.90;;;;;;5034099;28;20042;-56
2023/03/01 00:24:58;;;;;;;12.68;8.85;;;0.40;99.90;;;;;;5028966;28;20166;-56
2023/03/01 00:27:24;;;;;;;13.57;8.70;;;0.40;99.90;;;;;;5033651;28;20033;-56
2023/03/01 00:29:50;;;;;;;15.05;8.88;;;0.30;99.90;;;;;;5019858;28;20045;-57
2023/03/01 00:32:15;;;;;;;15.88;8.93;;;0.30;99.90;;;;;;5020877;28;20064;-56
2023/03/01 00:34:41;;;;;;;13.10;8.55;;;0.30;99.90;;;;;;5035482;28;20029;-57
2023/03/01 00:37:06;;;;;;;13.88;8.73;;;0.40;99.90;;;;;;5022624;28;20038;-55
2023/03/01 00:39:33;;;;;;;15.02;9.35;;;0.50;99.90;;;;;;5030684;28;20380;-55
2023/03/01 00:41:58;;;;;;;14.55;9.05;;;0.40;99.90;;;;;;5034812;28;20116;-57
2023/03/01 00:44:24;;;;;;;14.27;8.82;;;0.30;99.90;;;;;;5032848;28;20488;-57
2023/03/01 00:46:49;;;;;;;16.55;9.32;;;0.30;99.90;;;;;;5035476;28;20432;-56
2023/03/01 00:49:15;;;;;;;14.77;9.60;;;0.30;99.90;;;;;;5032156;28;20028;-56
2023/03/01 00:51:41;;;;;;;15.88;9.15;;;0.30;99.90;;;;;;5034124;28;20033;-57
2023/03/01 00:54:09;;;;;;;14.95;9.73;;;0.30;99.90;;;;;;5030707;28;20042;-57
2023/03/01 00:56:35;;;;;;;13.88;8.90;;;0.60;99.90;;;;;;5029633;28;20052;-56
2023/03/01 00:59:01;;;;;;;14.02;8.98;;;0.50;99.90;;;;;;5034195;28;20480;-56
2023/03/01 01:01:32;;;;;;;15.20;9.13;;;0.50;99.90;;;;;;5025399;28;20038;-56
2023/03/01 01:04:02;;;;;;;13.75;9.02;;;0.50;99.90;;;;;;5032850;28;20465;-56
2023/03/01 01:06:31;;;;;;;13.73;8.90;;;0.50;99.90;;;;;;5023851;28;20034;-57
2023/03/01 01:08:57;;;;;;;17.40;9.05;;;0.50;99.90;;;;;;5032315;28;20041;-54
2023/03/01 01:11:25;;;;;;;12.82;8.82;;;0.50;99.90;;;;;;5040406;28;20036;-57
2023/03/01 01:13:51;;;;;;;14.75;9.00;;;0.40;99.90;;;;;;5028280;28;20034;-57
2023/03/01 01:16:18;;;;;;;14.52;8.93;;;0.40;99.90;;;;;;5030248;28;20404;-54
2023/03/01 01:18:45;;;;;;;21.83;9.68;;;0.30;99.90;;;;;;5027245;28;20645;-56
2023/03/01 01:21:13;;;;;;;16.35;9.27;;;0.40;99.90;;;;;;5025920;28;20042;-55
2023/03/01 01:23:40;;;;;;;14.77;9.73;;;0.60;99.90;;;;;;5027438;28;20045;-56
2023/03/01 01:26:24;;;;;;;15.80;9.30;;;0.70;99.90;;;;;;5029623;28;20124;-55
2023/03/01 01:28:50;;;;;;;12.88;8.82;;;0.70;99.90;;;;;;5032933;28;20116;-56
2023/03/01 01:31:16;;;;;;;16.98;9.35;;;0.60;99.90;;;;;;5023885;28;20037;-57
2023/03/01 01:33:43;;;;;;;15.15;8.82;;;0.60;99.90;;;;;;5027274;28;20468;-57
2023/03/01 01:36:09;;;;;;;17.02;8.43;;;0.40;99.90;;;;;;5024875;28;20069;-56
2023/03/01 01:38:36;;;;;;;14.40;8.80;;;0.40;99.90;;;;;;5029629;28;20538;-55
2023/03/01 01:41:02;;;;;;;15.13;9.07;;;0.50;99.90;;;;;;5031321;28;20038;-54
2023/03/01 01:43:34;;;;;;;15.50;8.80;;;0.40;99.90;;;;;;5034307;28;20107;-55
2023/03/01 01:46:04;;;;;;;16.95;8.60;;;0.30;99.90;;;;;;5038242;28;20515;-56
2023/03/01 01:48:46;;;;;;;15.60;9.05;;;0.40;99.90;;;;;;5038315;28;20140;-55
2023/03/01 01:51:18;;;;;;;16.38;9.32;;;0.30;99.90;;;;;;5037933;28;20033;-56
2023/03/01 01:53:45;;;;;;;13.27;9.02;;;0.50;99.90;;;;;;5033768;28;20036;-57
2023/03/01 01:56:15;;;;;;;19.52;9.32;;;0.50;99.90;;;;;;5043080;28;20510;-54
2023/03/01 01:58:41;;;;;;;13.43;9.00;;;0.60;99.90;;;;;;5043936;28;20029;-57
2023/03/01 02:01:07;;;;;;;12.88;9.38;;;0.50;99.90;;;;;;5036637;28;20052;-56
2023/03/01 02:03:37;;;;;;;14.77;9.05;;;0.40;99.90;;;;;;5032979;28;20481;-56
2023/03/01 02:06:20;;;;;;;14.73;8.98;;;0.40;99.90;;;;;;5037600;28;20048;-56
2023/03/01 02:08:48;;;;;;;18.00;9.73;;;0.10;99.90;;;;;;5041632;28;20106;-56
2023/03/01 02:11:14;;;;;;;16.33;9.73;;;0.00;99.90;;;;;;5033866;28;20055;-57
2023/03/01 02:13:41;;;;;;;15.98;9.05;;;0.10;99.90;;;;;;5029336;28;20033;-56
2023/03/01 02:16:13;;;;;;;14.63;9.55;;;0.00;99.90;;;;;;5019535;28;20053;-56
2023/03/01 02:18:41;;;;;;;14.50;9.70;;;0.00;99.90;;;;;;5024864;28;20034;-57
2023/03/01 02:21:30;;;;;;;15.38;9.63;;;0.20;99.90;;;;;;5038655;28;20049;-54
2023/03/01 02:23:57;;;;;;;15.65;9.23;;;0.10;99.90;;;;;;5036339;28;20126;-57
2023/03/01 02:26:49;;;;;;;14.85;9.55;;;-0.20;99.90;;;;;;5024423;28;20045;-56
2023/03/01 02:29:15;;;;;;;15.02;9.40;;;-0.10;99.90;;;;;;5030481;28;20034;-56
2023/03/01 02:31:41;;;;;;;16.08;9.40;;;-0.10;99.90;;;;;;5038287;28;20036;-57
2023/03/01 02:34:11;;;;;;;18.67;10.27;;;-0.20;99.90;;;;;;5044415;28;20061;-55
2023/03/01 02:36:59;;;;;;;15.13;10.48;;;-0.20;99.90;;;;;;5029096;28;20065;-56
2023/03/01 02:39:34;;;;;;;13.43;9.38;;;0.00;99.90;;;;;;5036932;28;20049;-56
2023/03/01 02:42:01;;;;;;;17.42;10.10;;;0.00;99.90;;;;;;5038256;28;20032;-56
2023/03/01 02:44:26;;;;;;;16.63;9.82;;;0.10;99.90;;;;;;5043186;28;20492;-56
2023/03/01 02:46:55;;;;;;;16.45;9.30;;;0.30;99.90;;;;;;5050063;28;20032;-56
2023/03/01 02:49:27;;;;;;;14.00;9.07;;;0.50;99.90;;;;;;5053652;28;20029;-54
2023/03/01 02:52:12;;;;;;;12.48;8.82;;;0.50;99.90;;;;;;5049966;28;20642;-56
2023/03/01 02:54:48;;;;;;;15.27;9.40;;;0.30;99.90;;;;;;5054917;28;20033;-55
2023/03/01 02:57:14;;;;;;;13.60;9.52;;;0.00;99.90;;;;;;5054302;28;20499;-55
2023/03/01 02:59:42;;;;;;;13.95;9.25;;;-0.20;99.90;;;;;;5047484;28;20032;-55
2023/03/01 03:02:35;;;;;;;14.13;9.45;;;-0.10;99.90;;;;;;5050686;28;20037;-57
2023/03/01 03:05:08;;;;;;;17.88;9.55;;;-0.10;99.90;;;;;;5062647;28;20057;-55
2023/03/01 03:07:34;;;;;;;13.23;9.35;;;-0.10;99.90;;;;;;5058456;28;20488;-56
2023/03/01 03:10:00;;;;;;;14.77;9.60;;;-0.20;99.90;;;;;;5058902;28;20044;-57
2023/03/01 03:12:26;;;;;;;19.13;9.77;;;-0.30;99.90;;;;;;5056534;28;20043;-56
2023/03/01 03:14:52;;;;;;;14.88;9.75;;;-0.30;99.90;;;;;;5041529;28;20042;-55
2023/03/01 03:17:17;;;;;;;15.32;9.60;;;-0.20;99.90;;;;;;5040114;28;20116;-56
2023/03/01 03:19:45;;;;;;;16.85;9.75;;;-0.20;99.90;;;;;;5038410;28;20515;-55
2023/03/01 03:22:11;;;;;;;16.98;10.23;;;-0.20;99.90;;;;;;5031622;28;20124;-56
2023/03/01 03:24:37;;;;;;;15.93;10.30;;;-0.40;99.90;;;;;;5040124;28;20060;-54
2023/03/01 03:27:03;;;;;;;14.57;10.23;;;-0.30;99.90;;;;;;5039674;28;20029;-54
2023/03/01 03:29:29;;;;;;;14.77;10.15;;;-0.30;99.90;;;;;;5031577;28;20469;-57
2023/03/01 03:31:54;;;;;;;16.42;10.63;;;-0.20;99.90;;;;;;5031424;28;20114;-57
2023/03/01 03:34:20;;;;;;;16.17;9.75;;;-0.30;99.90;;;;;;5050953;28;20078;-55
2023/03/01 03:36:45;;;;;;;16.33;9.93;;;-0.40;99.90;;;;;;5022703;28;20034;-55
2023/03/01 03:39:11;;;;;;;19.67;10.20;;;-0.30;99.90;;;;;;5038978;28;20032;-56
2023/03/01 03:41:36;;;;;;;16.33;9.77;;;-0.10;99.90;;;;;;5035957;28;20041;-56
2023/03/01 03:44:02;;;;;;;19.33;10.00;;;0.00;99.90;;;;;;5037078;28;20037;-54
2023/03/01 03:46:28;;;;;;;16.80;10.05;;;-0.20;99.90;;;;;;5033033;28;20036;-56
2023/03/01 03:48:53;;;;;;;16.83;10.65;;;-0.10;99.90;;;;;;5029601;28;20095;-56
2023/03/01 03:51:19;;;;;;;17.40;9.93;;;-0.10;99.90;;;;;;5046632;28;20137;-55
2023/03/01 03:53:45;;;;;;;18.42;10.30;;;-0.30;99.90;;;;;;5035520;28;20084;-56
2023/03/01 03:56:11;;;;;;;15.82;10.02;;;-0.40;99.90;;;;;;5029711;28;20037;-56
2023/03/01 03:58:37;;;;;;;14.63;10.27;;;-0.40;99.90;;;;;;5042996;28;20416;-57
2023/03/01 04:01:03;;;;;;;18.75;10.65;;;-0.40;99.90;;;;;;5027764;28;20034;-56
2023/03/01 04:03:31;;;;;;;17.52;10.18;;;-0.60;99.90;;;;;;5031456;28;20799;-57
2023/03/01 04:05:58;;;;;;;18.83;10.77;;;-0.40;99.90;;;;;;5026295;28;20025;-55
2023/03/01 04:08:24;;;;;;;18.90;10.88;;;-0.50;99.90;;;;;;5036545;28;20065;-56
2023/03/01 04:10:52;;;;;;;15.32;10.68;;;-0.40;99.90;;;;;;5038293;28;20068;-54
2023/03/01 04:13:20;;;;;;;19.45;10.48;;;-0.30;99.90;;;;;;5031614;28;20406;-56
2023/03/01 04:15:48;;;;;;;19.15;10.77;;;-0.10;99.90;;;;;;5030467;28;20476;-57
2023/03/01 04:18:16;;;;;;;17.33;10.23;;;-0.30;99.90;;;;;;5040828;28;20087;-57
2023/03/01 04:20:42;;;;;;;15.07;10.20;;;-0.30;99.90;;;;;;5044741;28;20042;-56
2023/03/01 04:23:20;;;;;;;15.55;9.93;;;-0.10;99.90;;;;;;5025499;28;20087;-55
2023/03/01 04:25:53;;;;;;;13.50;9.52;;;-0.20;99.90;;;;;;5049616;28;20037;-55
2023/03/01 04:28:20;;;;;;;17.15;9.75;;;-0.20;99.90;;;;;;5027694;28;20477;-55
2023/03/01 04:30:46;;;;;;;19.23;10.95;;;-0.50;99.90;;;;;;5024587;28;20149;-56
2023/03/01 04:33:12;;;;;;;17.35;10.48;;;-0.70;99.90;;;;;;5037224;28;20115;-54
2023/03/01 04:35:38;;;;;;;18.65;10.52;;;-0.90;99.90;;;;;;5041226;28;20037;-56
2023/03/01 04:38:05;;;;;;;19.90;10.75;;;-0.90;99.90;;;;;;5026877;28;20033;-55
2023/03/01 04:40:31;;;;;;;20.70;11.38;;;-1.10;99.90;;;;;;5032972;28;20040;-57
2023/03/01 04:42:57;;;;;;;19.15;10.75;;;-1.10;99.90;;;;;;5043810;28;20123;-57
2023/03/01 04:45:23;;;;;;;15.90;11.05;;;-1.10;99.90;;;;;;5044621;28;20121;-56
2023/03/01 04:47:49;;;;;;;14.98;10.25;;;-1.20;99.90;;;;;;5034260;28;20065;-57
2023/03/01 04:50:16;;;;;;;18.02;11.60;;;-1.20;99.90;;;;;;5034033;28;20918;-56
2023/03/01 04:52:43;;;;;;;17.95;11.25;;;-1.20;99.90;;;;;;5044344;28;20021;-56
2023/03/01 04:55:10;;;;;;;17.77;11.25;;;-1.00;99.90;;;;;;5041268;28;20041;-56
2023/03/01 04:57:35;;;;;;;20.75;11.05;;;-0.90;99.90;;;;;;5033642;28;20489;-57
2023/03/01 05:00:01;;;;;;;19.75;10.77;;;-1.10;99.90;;;;;;5026789;28;20034;-56
2023/03/01 05:02:26;;;;;;;17.40;10.82;;;-0.90;99.90;;;;;;5036007;28;20383;-56
2023/03/01 05:04:52;;;;;;;18.45;11.00;;;-0.80;99.90;;;;;;5037702;28;20033;-56
2023/03/01 05:07:19;;;;;;;19.00;10.80;;;-0.90;99.90;;;;;;5042745;28;20044;-57
2023/03/01 05:09:48;;;;;;;15.25;10.45;;;-0.90;99.90;;;;;;5042963;28;20139;-56
2023/03/01 05:12:14;;;;;;;19.38;11.48;;;-1.00;99.90;;;;;;5022207;28;20028;-56
2023/03/01 05:14:41;;;;;;;18.45;11.05;;;-0.90;99.90;;;;;;5030349;28;20104;-56
2023/03/01 05:17:07;;;;;;;21.85;11.10;;;-1.10;99.90;;;;;;5031194;28;20428;-55
2023/03/01 05:19:33;;;;;;;16.63;11.07;;;-0.90;99.90;;;;;;5033322;28;20497;-57
2023/03/01 05:22:05;;;;;;;17.65;10.70;;;-0.70;99.90;;;;;;5024499;28;20048;-58
2023/03/01 05:24:33;;;;;;;20.00;11.32;;;-0.70;99.90;;;;;;5050984;28;20029;-54
2023/03/01 05:27:00;;;;;;;19.48;10.80;;;-0.70;99.90;;;;;;5054766;28;20033;-56
2023/03/01 05:29:28;;;;;;;16.27;10.48;;;-0.80;99.90;;;;;;5051538;28;20656;-55
2023/03/01 05:31:55;;;;;;;19.38;10.82;;;-0.70;99.90;;;;;;5050936;28;20035;-55
2023/03/01 05:34:30;;;;;;;18.90;10.95;;;-0.80;99.90;;;;;;5061070;28;20044;-55
2023/03/01 05:36:55;;;;;;;17.25;10.68;;;-0.80;99.90;;;;;;5045325;28;20041;-56
2023/03/01 05:39:22;;;;;;;17.95;11.20;;;-0.90;99.90;;;;;;5059227;28;20036;-55
2023/03/01 05:41:52;;;;;;;18.13;10.63;;;-0.80;99.90;;;;;;5053726;28;20135;-57
2023/03/01 05:44:18;;;;;;;18.33;10.77;;;-1.00;99.90;;;;;;5048199;28;20124;-55
2023/03/01 05:46:44;;;;;;;20.75;11.15;;;-1.00;99.90;;;;;;5054834;28;20112;-56
2023/03/01 05:49:10;;;;;;;17.58;11.63;;;-1.00;99.90;;;;;;5052965;28;20033;-55
2023/03/01 05:51:36;;;;;;;17.45;10.88;;;-0.90;99.90;;;;;;5061298;28;20033;-57
2023/03/01 05:54:02;;;;;;;18.35;10.27;;;-1.00;99.90;;;;;;5064841;28;20431;-56
2023/03/01 05:56:27;;;;;;;18.05;11.05;;;-1.00;99.90;;;;;;5046636;28;20029;-56
2023/03/01 05:58:53;;;;;;;16.38;10.60;;;-1.10;99.90;;;;;;5056925;28;20044;-56
2023/03/01 06:01:18;;;;;;;17.58;10.98;;;-1.10;99.90;;;;;;5056230;28;20033;-56
2023/03/01 06:03:44;;;;;;;17.95;11.20;;;-1.20;99.90;;;;;;5056074;28;20029;-57
2023/03/01 06:06:09;;;;;;;18.75;11.40;;;-1.10;99.90;;;;;;5042168;28;20096;-57
2023/03/01 06:08:35;;;;;;;24.45;10.82;;;-1.20;99.90;;;;;;5061464;28;20032;-55
2023/03/01 06:11:01;;;;;;;23.80;11.25;;;-1.30;99.90;;;;;;5047505;28;20087;-55
2023/03/01 06:13:26;;;;;;;17.52;11.48;;;-1.30;99.90;;;;;;5062368;28;20057;-56
2023/03/01 06:15:52;;;;;;;21.65;13.55;;;-1.20;99.90;;;;;;5056531;28;20127;-56
2023/03/01 06:18:17;;;;;;;21.73;13.82;;;-1.20;99.90;;;;;;5048580;28;20509;-56
2023/03/01 06:20:43;;;;;;;22.58;13.82;;;-1.20;99.90;;;;;;5054549;28;20048;-56
2023/03/01 06:23:09;;;;;;;19.60;12.75;;;-1.30;99.90;;;;;;5055582;28;20048;-57
2023/03/01 06:25:34;;;;;;;22.20;12.23;;;-1.30;99.90;;;;;;5048406;28;20028;-55
2023/03/01 06:28:00;;;;;;;28.60;15.80;;;-1.30;99.90;;;;;;5051277;28;20037;-56
2023/03/01 06:30:26;;;;;;;25.52;13.50;;;-1.20;99.90;;;;;;5035879;28;20095;-56
2023/03/01 06:32:52;;;;;;;22.90;13.95;;;-1.20;99.90;;;;;;5061947;28;20533;-55
2023/03/01 06:35:19;;;;;;;21.73;11.43;;;-1.20;99.90;;;;;;5059649;28;20040;-57
2023/03/01 06:37:46;;;;;;;19.45;12.18;;;-1.20;99.90;;;;;;5050339;28;20139;-57
2023/03/01 06:40:13;;;;;;;20.35;12.55;;;-1.00;99.90;;;;;;5047318;28;20594;-56
2023/03/01 06:42:42;;;;;;;19.92;12.27;;;-0.80;99.90;;;;;;5046698;28;20459;-58
2023/03/01 06:45:09;;;;;;;24.65;13.27;;;-0.60;99.90;;;;;;5045843;28;20036;-56
2023/03/01 06:47:35;;;;;;;27.83;12.68;;;-0.80;99.90;;;;;;5047126;28;20116;-53
2023/03/01 06:50:01;;;;;;;21.63;12.70;;;-1.00;99.90;;;;;;5036767;28;20125;-55
2023/03/01 06:52:27;;;;;;;21.75;11.93;;;-1.10;99.90;;;;;;5045793;28;20547;-55
2023/03/01 06:54:52;;;;;;;20.55;12.20;;;-0.90;99.90;;;;;;5042832;28;20044;-55
2023/03/01 06:57:18;;;;;;;23.30;12.63;;;-0.80;99.90;;;;;;5049821;28;20064;-56
2023/03/01 06:59:44;;;;;;;17.08;11.60;;;-0.90;99.90;;;;;;5045505;28;20086;-55
2023/03/01 07:02:14;;;;;;;21.17;12.63;;;-1.00;99.90;;;;;;5035404;28;20504;-55
2023/03/01 07:04:40;;;;;;;20.85;13.18;;;-1.00;99.90;;;;;;5039131;28;20028;-56
2023/03/01 07:07:06;;;;;;;21.65;12.50;;;-0.90;99.90;;;;;;5049171;28;20028;-56
2023/03/01 07:09:32;;;;;;;19.00;11.43;;;-0.90;99.90;;;;;;5062413;28;20021;-56
2023/03/01 07:11:58;;;;;;;20.65;11.60;;;-1.00;99.90;;;;;;5051420;28;20481;-55
2023/03/01 07:14:26;;;;;;;19.15;11.70;;;-0.90;99.90;;;;;;5049060;28;20052;-55
2023/03/01 07:16:55;;;;;;;33.20;13.35;;;-0.70;99.90;;;;;;5049632;28;20056;-55
2023/03/01 07:19:21;;;;;;;18.73;12.23;;;-0.70;99.90;;;;;;5052036;28;20021;-57
2023/03/01 07:21:47;;;;;;;17.05;11.55;;;-0.60;99.90;;;;;;5060817;28;20044;-57
2023/03/01 07:24:12;;;;;;;20.65;12.43;;;-0.60;99.90;;;;;;5053024;28;20040;-54
2023/03/01 07:26:38;;;;;;;21.27;11.52;;;-0.50;99.90;;;;;;5048082;28;20071;-56
2023/03/01 07:29:05;;;;;;;18.30;12.25;;;-0.50;99.90;;;;;;5048023;28;20029;-56
2023/03/01 07:31:31;;;;;;;23.88;12.07;;;-0.40;99.90;;;;;;5048213;28;20033;-55
2023/03/01 07:33:57;;;;;;;22.00;12.80;;;-0.40;99.90;;;;;;5047077;28;20029;-56
2023/03/01 07:36:23;;;;;;;20.42;12.13;;;-0.20;99.90;;;;;;5047106;28;20124;-56
2023/03/01 07:38:48;;;;;;;20.98;11.75;;;-0.10;99.90;;;;;;5055765;28;20070;-55
2023/03/01 07:41:14;;;;;;;18.10;11.35;;;-0.20;99.90;;;;;;5054997;28;20082;-57
2023/03/01 07:43:40;;;;;;;19.67;11.48;;;-0.10;99.90;;;;;;5048353;28;20539;-55
2023/03/01 07:46:06;;;;;;;22.40;11.48;;;0.10;99.90;;;;;;5056649;28;20496;-55
2023/03/01 07:48:33;;;;;;;20.65;12.60;;;0.10;99.90;;;;;;5070564;28;20039;-56
2023/03/01 07:51:00;;;;;;;19.58;12.80;;;0.10;99.90;;;;;;5074322;28;20036;-57
2023/03/01 07:53:26;;;;;;;20.50;12.10;;;0.10;99.90;;;;;;5068459;28;20663;-55
2023/03/01 07:56:01;;;;;;;23.23;11.20;;;0.10;99.90;;;;;;5061727;28;20072;-56
2023/03/01 07:58:27;;;;;;;19.15;11.30;;;0.10;99.90;;;;;;5059601;28;20041;-55
2023/03/01 08:00:52;;;;;;;18.88;11.45;;;0.10;99.90;;;;;;5058069;28;20102;-57
2023/03/01 08:03:18;;;;;;;21.92;12.15;;;0.30;99.90;;;;;;5053876;28;20485;-56
2023/03/01 08:05:43;;;;;;;21.92;11.98;;;0.40;99.90;;;;;;5054294;28;20507;-56
2023/03/01 08:08:09;;;;;;;22.83;11.85;;;0.60;99.90;;;;;;5053387;28;20083;-56
2023/03/01 08:10:36;;;;;;;20.58;11.13;;;0.60;99.90;;;;;;5053647;28;20087;-53
2023/03/01 08:13:02;;;;;;;16.67;10.93;;;0.50;99.90;;;;;;5051389;28;20029;-54
2023/03/01 08:15:27;;;;;;;16.17;9.15;;;0.60;99.90;;;;;;5053951;28;20542;-54
2023/03/01 08:17:53;;;;;;;15.52;11.18;;;0.70;99.90;;;;;;5052076;28;20512;-56
2023/03/01 08:20:18;;;;;;;19.08;11.70;;;0.80;99.90;;;;;;5057873;28;20029;-55
2023/03/01 08:22:44;;;;;;;18.90;11.00;;;1.00;99.90;;;;;;5062467;28;20090;-55
2023/03/01 08:25:09;;;;;;;20.35;11.35;;;1.10;99.90;;;;;;5054645;28;20036;-55
2023/03/01 08:27:35;;;;;;;19.35;12.25;;;1.20;99.90;;;;;;5052749;28;20063;-53
2023/03/01 08:30:01;;;;;;;21.00;11.90;;;1.40;99.90;;;;;;5046955;28;20041;-54
2023/03/01 08:32:26;;;;;;;21.45;11.57;;;1.50;99.90;;;;;;5053180;28;20147;-55
2023/03/01 08:34:53;;;;;;;17.02;10.65;;;1.50;99.90;;;;;;5051142;28;20056;-53
2023/03/01 08:37:18;;;;;;;20.35;11.25;;;1.50;99.90;;;;;;5054958;28;20028;-53
2023/03/01 08:39:44;;;;;;;14.73;8.57;;;1.60;99.90;;;;;;5056101;28;20132;-53
2023/03/01 08:42:09;;;;;;;20.52;11.10;;;1.60;99.90;;;;;;5046183;28;20039;-54
2023/03/01 08:44:35;;;;;;;16.20;10.82;;;1.70;99.90;;;;;;5046449;28;20495;-55
2023/03/01 08:47:02;;;;;;;17.70;10.52;;;1.80;99.90;;;;;;5050370;28;20028;-55
2023/03/01 08:49:27;;;;;;;18.33;11.25;;;1.80;99.90;;;;;;5055622;28;20276;-55
2023/03/01 08:51:54;;;;;;;17.50;9.90;;;2.00;99.90;;;;;;5057929;28;20055;-55
2023/03/01 08:54:21;;;;;;;13.95;9.75;;;1.90;99.90;;;;;;5055678;28;20475;-54
2023/03/01 08:56:47;;;;;;;15.85;10.70;;;1.90;99.90;;;;;;5057452;28;20526;-54
2023/03/01 08:59:14;;;;;;;20.77;10.70;;;2.00;99.90;;;;;;5047879;28;20037;-54
2023/03/01 09:01:42;;;;;;;35.80;18.65;;;2.00;99.90;;;;;;5052370;28;20060;-53
2023/03/01 09:04:09;;;;;;;23.50;13.35;;;2.10;99.90;;;;;;5046110;28;20028;-53
2023/03/01 09:06:35;;;;;;;17.30;10.70;;;2.20;99.90;;;;;;5053901;28;20528;-54
2023/03/01 09:09:01;;;;;;;15.50;10.13;;;2.30;99.90;;;;;;5053869;28;20049;-54
2023/03/01 09:11:28;;;;;;;21.60;11.25;;;2.30;99.90;;;;;;5031195;28;20052;-55
2023/03/01 09:13:54;;;;;;;17.15;10.60;;;2.30;99.90;;;;;;5028750;28;20083;-55
2023/03/01 09:16:22;;;;;;;15.20;10.45;;;2.40;99.90;;;;;;5027740;28;20033;-55
2023/03/01 09:18:53;;;;;;;21.13;11.68;;;2.50;99.90;;;;;;5026336;28;20083;-54
2023/03/01 09:21:22;;;;;;;16.80;11.30;;;2.50;99.90;;;;;;5028301;28;20519;-55
2023/03/01 09:23:48;;;;;;;21.58;12.48;;;2.60;99.90;;;;;;5033905;28;20049;-54
2023/03/01 09:26:20;;;;;;;17.98;11.45;;;2.60;99.90;;;;;;5029145;28;20037;-54
2023/03/01 09:28:46;;;;;;;11.07;7.68;;;2.70;99.90;;;;;;5025685;28;20136;-56
2023/03/01 09:31:14;;;;;;;16.92;11.13;;;2.70;99.90;;;;;;5030280;28;20450;-54
2023/03/01 09:33:41;;;;;;;16.42;10.38;;;2.70;99.90;;;;;;5034161;28;20033;-55
2023/03/01 09:36:13;;;;;;;16.35;10.30;;;2.80;99.90;;;;;;5025135;28;20051;-55
2023/03/01 09:38:39;;;;;;;16.73;10.93;;;2.90;99.90;;;;;;5021955;28;20044;-54
2023/03/01 09:41:27;;;;;;;19.05;11.48;;;3.00;99.90;;;;;;5025106;28;20041;-54
2023/03/01 09:44:00;;;;;;;19.90;12.98;;;3.00;99.90;;;;;;5028085;28;20129;-54
2023/03/01 09:46:27;;;;;;;18.40;12.05;;;3.00;99.90;;;;;;5026520;28;20033;-55
2023/03/01 09:48:59;;;;;;;20.83;10.38;;;3.20;99.90;;;;;;5033708;28;20053;-55
2023/03/01 09:51:32;;;;;;;17.77;10.80;;;3.20;99.90;;;;;;5018063;28;20045;-54
2023/03/01 09:54:00;;;;;;;16.77;10.77;;;3.20;99.90;;;;;;5040181;28;20071;-53
2023/03/01 09:56:33;;;;;;;13.43;8.52;;;3.20;99.90;;;;;;5024690;28;20038;-53
2023/03/01 09:59:13;;;;;;;16.52;10.15;;;3.30;99.90;;;;;;5036257;28;20041;-55
2023/03/01 10:02:14;;;;;;;18.20;10.88;;;3.30;99.90;;;;;;5032397;28;20302;-56
2023/03/01 10:04:48;;;;;;;18.55;8.75;;;3.40;99.90;;;;;;5033515;28;20041;-56
2023/03/01 10:07:32;;;;;;;17.13;10.48;;;3.50;99.90;;;;;;5034562;28;20381;-54
2023/03/01 10:10:00;;;;;;;16.98;10.38;;;3.50;99.90;;;;;;5037722;28;20034;-51
2023/03/01 10:12:32;;;;;;;15.07;9.50;;;3.80;99.90;;;;;;5031259;28;20040;-54
2023/03/01 10:15:12;;;;;;;16.77;10.02;;;3.80;99.90;;;;;;5020414;28;20046;-54
2023/03/01 10:17:52;;;;;;;16.65;9.55;;;3.80;99.90;;;;;;5040585;28;20044;-55
2023/03/01 10:20:55;;;;;;;16.73;10.25;;;3.70;99.90;;;;;;5044661;28;20432;-55
2023/03/01 10:23:27;;;;;;;17.65;10.40;;;3.70;99.90;;;;;;5045002;28;20484;-53
2023/03/01 10:26:03;;;;;;;16.75;10.63;;;3.80;99.90;;;;;;5046627;28;20056;-54
2023/03/01 10:28:50;;;;;;;16.55;9.48;;;4.00;99.90;;;;;;5029267;28;20041;-53
2023/03/01 10:31:22;;;;;;;16.55;10.05;;;4.00;99.90;;;;;;5031492;28;20069;-56
2023/03/01 10:33:51;;;;;;;16.13;10.90;;;4.00;99.90;;;;;;5027726;28;20037;-55
2023/03/01 10:36:17;;;;;;;14.30;9.52;;;4.00;99.90;;;;;;5035704;28;20029;-55
2023/03/01 10:38:54;;;;;;;16.55;9.43;;;4.10;99.90;;;;;;5025552;28;20685;-55
2023/03/01 10:41:25;;;;;;;16.60;10.15;;;4.00;99.90;;;;;;5023814;28;20037;-54
2023/03/01 10:43:56;;;;;;;15.45;9.50;;;4.20;99.90;;;;;;5028111;28;20162;-54
2023/03/01 10:46:26;;;;;;;17.63;9.70;;;4.10;99.90;;;;;;5024733;28;20535;-52
2023/03/01 10:49:14;;;;;;;14.15;9.10;;;4.10;99.90;;;;;;5027405;28;20135;-53
2023/03/01 10:51:42;;;;;;;15.73;8.93;;;4.10;99.90;;;;;;5028133;28;20068;-55
2023/03/01 10:54:21;;;;;;;16.08;9.32;;;4.20;99.90;;;;;;5029074;28;20469;-54
2023/03/01 10:56:53;;;;;;;13.27;8.32;;;4.30;99.90;;;;;;5024496;28;20038;-55
2023/03/01 10:59:36;;;;;;;12.13;8.27;;;4.40;99.90;;;;;;5024510;28;20037;-55
2023/03/01 11:02:25;;;;;;;12.95;8.68;;;4.50;99.90;;;;;;5028870;28;20063;-54
2023/03/01 11:05:17;;;;;;;13.10;8.02;;;4.50;99.90;;;;;;5029291;28;20033;-53
2023/03/01 11:07:56;;;;;;;12.60;7.88;;;4.50;99.90;;;;;;5024080;28;20393;-52
2023/03/01 11:10:34;;;;;;;14.68;8.65;;;4.40;99.90;;;;;;5038428;28;20052;-53
2023/03/01 11:13:16;;;;;;;14.23;8.60;;;4.50;99.90;;;;;;5034418;28;20038;-52
2023/03/01 11:15:42;;;;;;;16.30;8.40;;;4.60;99.90;;;;;;5029361;28;20370;-55
2023/03/01 11:18:23;;;;;;;15.48;9.15;;;4.60;99.90;;;;;;5027395;28;20037;-53
2023/03/01 11:20:53;;;;;;;11.95;8.05;;;4.80;99.90;;;;;;5027570;28;20061;-53
2023/03/01 11:23:19;;;;;;;13.35;8.00;;;4.70;99.90;;;;;;5030054;28;20071;-55
2023/03/01 11:25:58;;;;;;;12.32;8.20;;;4.80;99.90;;;;;;5028768;28;20071;-54
2023/03/01 11:28:27;;;;;;;13.68;8.32;;;4.70;99.90;;;;;;5023604;28;20520;-54
2023/03/01 11:31:08;;;;;;;12.95;8.13;;;4.80;99.90;;;;;;5025424;28;20034;-56
2023/03/01 11:33:48;;;;;;;13.68;8.70;;;4.80;99.90;;;;;;5028578;28;20041;-55
2023/03/01 11:36:41;;;;;;;12.98;7.68;;;4.90;99.90;;;;;;5036022;28;20084;-54
2023/03/01 11:39:37;;;;;;;14.55;7.72;;;4.90;99.90;;;;;;5026108;28;20108;-54
2023/03/01 11:42:19;;;;;;;15.25;8.35;;;4.90;99.90;;;;;;5030178;28;20040;-53
2023/03/01 11:44:49;;;;;;;10.88;5.47;;;5.10;99.90;;;;;;5038345;28;20029;-54
2023/03/01 11:47:23;;;;;;;12.32;7.90;;;5.10;99.90;;;;;;5029716;28;20037;-53
2023/03/01 11:50:15;;;;;;;15.85;7.90;;;5.00;99.90;;;;;;5031609;28;20059;-55
2023/03/01 11:52:51;;;;;;;10.43;6.63;;;5.10;99.90;;;;;;5028035;28;20068;-53
2023/03/01 11:55:40;;;;;;;16.38;7.90;;;5.20;99.90;;;;;;5032793;28;20068;-54
2023/03/01 11:58:33;;;;;;;10.60;7.57;;;5.30;99.90;;;;;;5030968;28;20116;-54
2023/03/01 12:01:20;;;;;;;39.23;20.57;;;5.40;99.90;;;;;;5034673;28;20068;-54
2023/03/01 12:03:48;;;;;;;9.68;6.03;;;5.50;99.90;;;;;;5028719;28;20090;-54
2023/03/01 12:06:23;;;;;;;11.88;7.47;;;5.80;99.90;;;;;;5025459;28;20038;-54
2023/03/01 12:08:49;;;;;;;14.18;8.35;;;5.60;99.90;;;;;;5027300;28;20057;-55
2023/03/01 12:11:40;;;;;;;12.75;7.60;;;5.60;99.90;;;;;;5030944;28;20133;-55
2023/03/01 12:14:33;;;;;;;9.38;6.25;;;5.50;99.90;;;;;;5023947;28;20548;-53
2023/03/01 12:23:16;;;;;;;11.10;6.60;;;5.60;99.90;;;;;;5138912;22;20037;-55
2023/03/01 12:25:47;;;;;;;10.32;6.72;;;5.60;99.90;;;;;;5032089;28;20781;-54
2023/03/01 12:28:34;;;;;;;9.35;6.38;;;5.60;99.90;;;;;;5042758;28;20033;-53
2023/03/01 12:31:09;;;;;;;11.05;5.65;;;5.80;99.90;;;;;;5042469;28;20368;-54
2023/03/01 12:34:17;;;;;;;12.02;6.32;;;5.60;99.90;;;;;;5054308;28;20040;-54
2023/03/01 12:37:12;;;;;;;9.85;6.40;;;5.60;99.90;;;;;;5026583;28;20038;-55
2023/03/01 12:39:50;;;;;;;9.88;6.57;;;5.70;99.90;;;;;;5044935;28;20483;-54
2023/03/01 12:42:41;;;;;;;10.70;6.00;;;5.70;99.90;;;;;;5043813;28;20115;-52
2023/03/01 12:45:44;;;;;;;9.90;6.63;;;5.70;99.90;;;;;;5054209;28;20033;-53
2023/03/01 12:48:37;;;;;;;10.52;5.65;;;5.70;99.90;;;;;;5048795;28;20029;-53
2023/03/01 12:51:10;;;;;;;11.10;6.68;;;5.80;99.90;;;;;;5047041;28;20036;-53
2023/03/01 12:56:52;;;;;;;11.65;6.28;;;5.70;99.90;;;;;;5992405;22;20053;-49
2023/03/01 12:59:44;;;;;;;;;;;5.80;99.90;;;;;;5058614;28;20036;-51
2023/03/01 13:02:18;;;;;;;10.82;7.20;;;5.80;99.90;;;;;;5052522;28;20011;-49